sensor_id;sensor_type;location;lat;lon;timestamp;pressure;altitude;pressure_sealevel;temperature;humidity
46347;BME280;32057;47.830;19.046;2023-03-20T00:01:54;100296.00;;;6.44;85.69
46347;BME280;32057;47.830;19.046;2023-03-20T00:04:19;100303.41;;;6.34;84.52
46347;BME280;32057;47.830;19.046;2023-03-20T00:06:45;100300.66;;;6.30;85.74
46347;BME280;32057;47.830;19.046;2023-03-20T00:09:10;100294.13;;;6.17;86.37
46347;BME280;32057;47.830;19.046;2023-03-20T00:11:55;100292.94;;;6.07;85.41
46347;BME280;32057;47.830;19.046;2023-03-20T00:14:21;100302.31;;;6.05;86.55
46347;BME280;32057;47.830;19.046;2023-03-20T00:16:49;100296.22;;;6.03;86.61
46347;BME280;32057;47.830;19.046;2023-03-20T00:19:21;100292.56;;;5.98;86.86
46347;BME280;32057;47.830;19.046;2023-03-20T00:21:47;100290.00;;;5.98;86.46
46347;BME280;32057;47.830;19.046;2023-03-20T00:24:14;100285.75;;;6.00;87.04
46347;BME280;32057;47.830;19.046;2023-03-20T00:26:40;100299.69;;;6.04;85.98
46347;BME280;32057;47.830;19.046;2023-03-20T00:29:06;100285.91;;;6.03;87.22
46347;BME280;32057;47.830;19.046;2023-03-20T00:31:37;100287.69;;;6.06;88.14
46347;BME280;32057;47.830;19.046;2023-03-20T00:34:09;100297.16;;;6.05;88.37
46347;BME280;32057;47.830;19.046;2023-03-20T00:36:35;100289.84;;;5.95;86.97
46347;BME280;32057;47.830;19.046;2023-03-20T00:39:01;100283.56;;;5.88;86.75
46347;BME280;32057;47.830;19.046;2023-03-20T00:44:20;100288.78;;;5.67;87.60
46347;BME280;32057;47.830;19.046;2023-03-20T00:46:47;100292.06;;;5.63;88.37
46347;BME280;32057;47.830;19.046;2023-03-20T00:49:14;100289.22;;;5.57;89.27
46347;BME280;32057;47.830;19.046;2023-03-20T00:51:40;100294.38;;;5.57;88.99
46347;BME280;32057;47.830;19.046;2023-03-20T00:54:14;100286.00;;;5.63;89.95
46347;BME280;32057;47.830;19.046;2023-03-20T00:57:08;100293.09;;;5.68;90.81
46347;BME280;32057;47.830;19.046;2023-03-20T00:59:40;100291.59;;;5.73;90.19
46347;BME280;32057;47.830;19.046;2023-03-20T01:02:09;100285.03;;;5.82;90.10
46347;BME280;32057;47.830;19.046;2023-03-20T01:04:38;100287.63;;;5.82;90.75
46347;BME280;32057;47.830;19.046;2023-03-20T01:07:08;100292.53;;;5.75;91.24
46347;BME280;32057;47.830;19.046;2023-03-20T01:09:36;100285.66;;;5.76;92.05
46347;BME280;32057;47.830;19.046;2023-03-20T01:12:02;100284.56;;;5.69;93.11
46347;BME280;32057;47.830;19.046;2023-03-20T01:14:28;100277.38;;;5.62;91.97
46347;BME280;32057;47.830;19.046;2023-03-20T01:16:54;100282.53;;;5.62;92.21
46347;BME280;32057;47.830;19.046;2023-03-20T01:19:19;100276.56;;;5.63;92.80
46347;BME280;32057;47.830;19.046;2023-03-20T01:21:45;100272.22;;;5.62;92.71
46347;BME280;32057;47.830;19.046;2023-03-20T01:24:11;100277.53;;;5.65;92.07
46347;BME280;32057;47.830;19.046;2023-03-20T01:26:38;100275.03;;;5.68;92.66
46347;BME280;32057;47.830;19.046;2023-03-20T01:29:22;100275.16;;;5.71;92.00
46347;BME280;32057;47.830;19.046;2023-03-20T01:31:49;100277.56;;;5.67;92.36
46347;BME280;32057;47.830;19.046;2023-03-20T01:34:15;100278.31;;;5.64;92.24
46347;BME280;32057;47.830;19.046;2023-03-20T01:36:44;100272.22;;;5.62;92.41
46347;BME280;32057;47.830;19.046;2023-03-20T01:39:12;100277.06;;;5.54;92.87
46347;BME280;32057;47.830;19.046;2023-03-20T01:41:38;100283.06;;;5.32;92.20
46347;BME280;32057;47.830;19.046;2023-03-20T01:44:19;100276.72;;;5.24;92.31
46347;BME280;32057;47.830;19.046;2023-03-20T01:46:46;100266.56;;;5.27;92.38
46347;BME280;32057;47.830;19.046;2023-03-20T01:51:46;100271.00;;;5.31;91.84
46347;BME280;32057;47.830;19.046;2023-03-20T01:54:34;100274.56;;;5.35;91.18
46347;BME280;32057;47.830;19.046;2023-03-20T01:57:11;100273.88;;;5.39;89.61
46347;BME280;32057;47.830;19.046;2023-03-20T02:00:02;100272.81;;;5.34;89.31
46347;BME280;32057;47.830;19.046;2023-03-20T02:02:30;100269.88;;;5.25;88.85
46347;BME280;32057;47.830;19.046;2023-03-20T02:05:02;100267.19;;;5.22;91.06
46347;BME280;32057;47.830;19.046;2023-03-20T02:07:29;100264.78;;;5.26;89.84
46347;BME280;32057;47.830;19.046;2023-03-20T02:09:55;100265.47;;;5.22;89.02
46347;BME280;32057;47.830;19.046;2023-03-20T02:12:21;100260.94;;;5.16;88.44
46347;BME280;32057;47.830;19.046;2023-03-20T02:14:47;100263.81;;;5.03;88.05
46347;BME280;32057;47.830;19.046;2023-03-20T02:17:13;100261.88;;;4.97;89.35
46347;BME280;32057;47.830;19.046;2023-03-20T02:19:53;100264.56;;;4.79;89.55
46347;BME280;32057;47.830;19.046;2023-03-20T02:31:10;100262.03;;;4.60;90.65
46347;BME280;32057;47.830;19.046;2023-03-20T02:36:52;100270.25;;;4.51;90.96
46347;BME280;32057;47.830;19.046;2023-03-20T02:47:55;100260.06;;;4.35;90.07
46347;BME280;32057;47.830;19.046;2023-03-20T02:56:02;100271.31;;;4.17;93.57
46347;BME280;32057;47.830;19.046;2023-03-20T02:58:40;100270.50;;;4.18;95.42
46347;BME280;32057;47.830;19.046;2023-03-20T03:01:33;100262.94;;;4.22;92.44
46347;BME280;32057;47.830;19.046;2023-03-20T03:04:03;100256.00;;;4.21;92.17
46347;BME280;32057;47.830;19.046;2023-03-20T03:06:35;100260.47;;;4.25;92.87
46347;BME280;32057;47.830;19.046;2023-03-20T03:09:06;100260.53;;;4.26;92.08
46347;BME280;32057;47.830;19.046;2023-03-20T03:11:38;100254.09;;;4.16;91.23
46347;BME280;32057;47.830;19.046;2023-03-20T03:14:05;100260.44;;;4.05;91.46
46347;BME280;32057;47.830;19.046;2023-03-20T03:16:36;100260.44;;;4.05;92.34
46347;BME280;32057;47.830;19.046;2023-03-20T03:19:07;100258.03;;;4.08;93.79
46347;BME280;32057;47.830;19.046;2023-03-20T03:21:35;100257.19;;;4.09;93.67
46347;BME280;32057;47.830;19.046;2023-03-20T03:24:02;100254.56;;;4.08;93.19
46347;BME280;32057;47.830;19.046;2023-03-20T03:26:31;100258.91;;;4.09;93.09
46347;BME280;32057;47.830;19.046;2023-03-20T03:28:59;100256.31;;;4.09;93.83
46347;BME280;32057;47.830;19.046;2023-03-20T03:31:27;100260.41;;;4.04;94.68
46347;BME280;32057;47.830;19.046;2023-03-20T03:33:55;100260.31;;;4.02;94.57
46347;BME280;32057;47.830;19.046;2023-03-20T03:36:48;100262.75;;;3.99;93.08
46347;BME280;32057;47.830;19.046;2023-03-20T03:41:58;100260.28;;;3.83;92.04
46347;BME280;32057;47.830;19.046;2023-03-20T03:45:07;100263.44;;;3.77;92.62
46347;BME280;32057;47.830;19.046;2023-03-20T03:47:46;100261.63;;;3.74;93.71
46347;BME280;32057;47.830;19.046;2023-03-20T03:50:20;100259.94;;;3.75;94.94
46347;BME280;32057;47.830;19.046;2023-03-20T03:52:49;100266.97;;;3.79;95.80
46347;BME280;32057;47.830;19.046;2023-03-20T03:55:28;100264.19;;;3.74;95.87
46347;BME280;32057;47.830;19.046;2023-03-20T03:58:00;100264.94;;;3.72;95.21
46347;BME280;32057;47.830;19.046;2023-03-20T04:00:28;100265.63;;;3.68;95.13
46347;BME280;32057;47.830;19.046;2023-03-20T04:02:56;100267.44;;;3.70;95.12
46347;BME280;32057;47.830;19.046;2023-03-20T04:05:24;100261.56;;;3.73;96.07
46347;BME280;32057;47.830;19.046;2023-03-20T04:07:54;100264.19;;;3.74;95.97
46347;BME280;32057;47.830;19.046;2023-03-20T04:10:20;100273.53;;;3.72;96.13
46347;BME280;32057;47.830;19.046;2023-03-20T04:12:45;100275.09;;;3.69;94.93
46347;BME280;32057;47.830;19.046;2023-03-20T04:15:13;100277.75;;;3.70;96.25
46347;BME280;32057;47.830;19.046;2023-03-20T04:17:40;100270.69;;;3.66;96.67
46347;BME280;32057;47.830;19.046;2023-03-20T04:20:06;100273.34;;;3.68;96.47
46347;BME280;32057;47.830;19.046;2023-03-20T04:22:32;100269.19;;;3.71;95.62
46347;BME280;32057;47.830;19.046;2023-03-20T04:25:00;100267.28;;;3.67;95.51
46347;BME280;32057;47.830;19.046;2023-03-20T04:27:27;100269.94;;;3.69;95.53
46347;BME280;32057;47.830;19.046;2023-03-20T04:29:53;100268.03;;;3.65;96.25
46347;BME280;32057;47.830;19.046;2023-03-20T04:32:18;100275.09;;;3.69;96.22
46347;BME280;32057;47.830;19.046;2023-03-20T04:34:44;100283.75;;;3.71;95.91
46347;BME280;32057;47.830;19.046;2023-03-20T04:37:09;100283.03;;;3.55;93.54
46347;BME280;32057;47.830;19.046;2023-03-20T04:39:35;100282.91;;;3.52;95.00
46347;BME280;32057;47.830;19.046;2023-03-20T04:42:02;100282.03;;;3.52;95.77
46347;BME280;32057;47.830;19.046;2023-03-20T04:44:27;100290.97;;;3.60;96.40
46347;BME280;32057;47.830;19.046;2023-03-20T04:46:53;100283.56;;;3.66;96.82
46347;BME280;32057;47.830;19.046;2023-03-20T04:49:18;100297.16;;;3.46;94.49
46347;BME280;32057;47.830;19.046;2023-03-20T04:51:44;100293.75;;;3.47;95.99
46347;BME280;32057;47.830;19.046;2023-03-20T04:54:09;100289.19;;;3.41;95.51
46347;BME280;32057;47.830;19.046;2023-03-20T04:56:35;100304.47;;;3.20;94.04
46347;BME280;32057;47.830;19.046;2023-03-20T04:59:00;100296.38;;;3.12;95.24
46347;BME280;32057;47.830;19.046;2023-03-20T05:01:26;100295.63;;;2.97;95.99
46347;BME280;32057;47.830;19.046;2023-03-20T05:03:51;100302.66;;;3.01;98.15
46347;BME280;32057;47.830;19.046;2023-03-20T05:06:17;100300.50;;;3.09;99.26
46347;BME280;32057;47.830;19.046;2023-03-20T05:08:42;100301.75;;;3.17;98.88
46347;BME280;32057;47.830;19.046;2023-03-20T05:11:08;100307.94;;;3.21;98.61
46347;BME280;32057;47.830;19.046;2023-03-20T05:13:34;100303.28;;;3.13;98.23
46347;BME280;32057;47.830;19.046;2023-03-20T05:15:59;100302.97;;;3.07;97.54
46347;BME280;32057;47.830;19.046;2023-03-20T05:18:25;100302.28;;;3.10;97.93
46347;BME280;32057;47.830;19.046;2023-03-20T05:20:50;100310.94;;;3.12;98.17
46347;BME280;32057;47.830;19.046;2023-03-20T05:23:16;100309.63;;;3.20;98.39
46347;BME280;32057;47.830;19.046;2023-03-20T05:25:41;100315.84;;;3.25;98.08
46347;BME280;32057;47.830;19.046;2023-03-20T05:28:07;100306.69;;;3.30;98.32
46347;BME280;32057;47.830;19.046;2023-03-20T05:30:32;100308.31;;;3.28;98.63
46347;BME280;32057;47.830;19.046;2023-03-20T05:32:57;100317.63;;;3.26;98.66
46347;BME280;32057;47.830;19.046;2023-03-20T05:35:23;100318.59;;;3.28;98.67
46347;BME280;32057;47.830;19.046;2023-03-20T05:37:48;100317.94;;;3.32;98.52
46347;BME280;32057;47.830;19.046;2023-03-20T05:40:15;100319.63;;;3.32;100.00
46347;BME280;32057;47.830;19.046;2023-03-20T05:42:41;100324.16;;;3.37;99.54
46347;BME280;32057;47.830;19.046;2023-03-20T05:45:07;100318.63;;;3.46;99.09
46347;BME280;32057;47.830;19.046;2023-03-20T05:47:33;100317.22;;;3.53;99.03
46347;BME280;32057;47.830;19.046;2023-03-20T05:49:58;100322.81;;;3.62;98.35
46347;BME280;32057;47.830;19.046;2023-03-20T05:52:24;100324.06;;;3.70;99.56
46347;BME280;32057;47.830;19.046;2023-03-20T05:54:49;100331.47;;;3.82;98.61
46347;BME280;32057;47.830;19.046;2023-03-20T05:57:15;100335.41;;;3.93;97.95
46347;BME280;32057;47.830;19.046;2023-03-20T05:59:42;100334.16;;;4.03;99.38
46347;BME280;32057;47.830;19.046;2023-03-20T06:02:08;100331.88;;;4.09;100.00
46347;BME280;32057;47.830;19.046;2023-03-20T06:04:33;100331.28;;;4.15;100.00
46347;BME280;32057;47.830;19.046;2023-03-20T06:06:59;100334.28;;;4.24;100.00
46347;BME280;32057;47.830;19.046;2023-03-20T06:09:24;100337.34;;;4.35;100.00
46347;BME280;32057;47.830;19.046;2023-03-20T06:11:50;100339.50;;;4.45;98.65
46347;BME280;32057;47.830;19.046;2023-03-20T06:14:15;100344.41;;;4.58;97.40
46347;BME280;32057;47.830;19.046;2023-03-20T06:16:41;100337.38;;;4.74;100.00
46347;BME280;32057;47.830;19.046;2023-03-20T06:19:06;100339.63;;;4.87;98.96
46347;BME280;32057;47.830;19.046;2023-03-20T06:21:31;100335.84;;;4.98;94.77
46347;BME280;32057;47.830;19.046;2023-03-20T06:23:57;100331.34;;;5.14;93.37
46347;BME280;32057;47.830;19.046;2023-03-20T06:26:24;100330.28;;;5.30;92.84
46347;BME280;32057;47.830;19.046;2023-03-20T06:28:50;100329.31;;;5.49;92.47
46347;BME280;32057;47.830;19.046;2023-03-20T06:31:15;100337.94;;;5.70;89.98
46347;BME280;32057;47.830;19.046;2023-03-20T06:33:41;100329.22;;;5.89;89.38
46347;BME280;32057;47.830;19.046;2023-03-20T06:36:06;100329.19;;;6.10;89.03
46347;BME280;32057;47.830;19.046;2023-03-20T06:38:32;100330.03;;;6.32;88.23
46347;BME280;32057;47.830;19.046;2023-03-20T06:40:58;100328.72;;;6.43;86.68
46347;BME280;32057;47.830;19.046;2023-03-20T06:43:23;100335.00;;;6.50;83.63
46347;BME280;32057;47.830;19.046;2023-03-20T06:45:49;100340.66;;;6.64;82.99
46347;BME280;32057;47.830;19.046;2023-03-20T06:48:14;100343.13;;;6.85;84.72
46347;BME280;32057;47.830;19.046;2023-03-20T06:50:49;100344.81;;;7.08;81.49
46347;BME280;32057;47.830;19.046;2023-03-20T06:53:14;100334.41;;;7.32;81.70
46347;BME280;32057;47.830;19.046;2023-03-20T06:55:41;100329.34;;;7.61;84.13
46347;BME280;32057;47.830;19.046;2023-03-20T06:58:07;100335.53;;;7.93;78.33
46347;BME280;32057;47.830;19.046;2023-03-20T07:00:32;100332.81;;;8.17;74.27
46347;BME280;32057;47.830;19.046;2023-03-20T07:02:58;100338.63;;;8.39;71.67
46347;BME280;32057;47.830;19.046;2023-03-20T07:05:24;100340.81;;;8.54;72.78
46347;BME280;32057;47.830;19.046;2023-03-20T07:07:50;100339.63;;;8.73;72.55
46347;BME280;32057;47.830;19.046;2023-03-20T07:10:16;100335.91;;;8.95;68.67
46347;BME280;32057;47.830;19.046;2023-03-20T07:12:41;100333.88;;;9.18;67.60
46347;BME280;32057;47.830;19.046;2023-03-20T07:15:08;100331.81;;;9.38;64.67
46347;BME280;32057;47.830;19.046;2023-03-20T07:17:34;100327.53;;;9.75;60.67
46347;BME280;32057;47.830;19.046;2023-03-20T07:19:59;100330.03;;;10.10;60.61
46347;BME280;32057;47.830;19.046;2023-03-20T07:22:27;100326.47;;;10.44;60.05
46347;BME280;32057;47.830;19.046;2023-03-20T07:24:53;100326.91;;;10.66;59.92
46347;BME280;32057;47.830;19.046;2023-03-20T07:27:18;100330.66;;;10.80;58.79
46347;BME280;32057;47.830;19.046;2023-03-20T07:29:45;100326.47;;;10.87;54.58
46347;BME280;32057;47.830;19.046;2023-03-20T07:32:11;100329.28;;;10.99;54.40
46347;BME280;32057;47.830;19.046;2023-03-20T07:34:36;100326.81;;;11.07;54.77
46347;BME280;32057;47.830;19.046;2023-03-20T07:37:03;100322.56;;;11.12;55.92
46347;BME280;32057;47.830;19.046;2023-03-20T07:39:28;100322.78;;;11.23;53.95
46347;BME280;32057;47.830;19.046;2023-03-20T07:41:54;100318.59;;;11.32;54.87
46347;BME280;32057;47.830;19.046;2023-03-20T07:44:19;100320.31;;;11.30;53.12
46347;BME280;32057;47.830;19.046;2023-03-20T07:46:45;100322.16;;;11.38;53.98
46347;BME280;32057;47.830;19.046;2023-03-20T07:49:15;100322.66;;;11.18;53.87
46347;BME280;32057;47.830;19.046;2023-03-20T07:51:43;100325.50;;;11.32;55.36
46347;BME280;32057;47.830;19.046;2023-03-20T07:54:08;100316.22;;;11.48;57.00
46347;BME280;32057;47.830;19.046;2023-03-20T07:56:34;100315.66;;;11.64;51.46
46347;BME280;32057;47.830;19.046;2023-03-20T07:58:59;100319.84;;;11.56;51.85
46347;BME280;32057;47.830;19.046;2023-03-20T08:01:24;100311.44;;;11.72;52.41
46347;BME280;32057;47.830;19.046;2023-03-20T08:03:50;100322.97;;;11.88;52.81
46347;BME280;32057;47.830;19.046;2023-03-20T08:06:15;100320.59;;;12.04;50.21
46347;BME280;32057;47.830;19.046;2023-03-20T08:08:41;100323.19;;;12.04;50.64
46347;BME280;32057;47.830;19.046;2023-03-20T08:11:06;100323.16;;;12.01;51.13
46347;BME280;32057;47.830;19.046;2023-03-20T08:13:32;100329.50;;;12.20;52.60
46347;BME280;32057;47.830;19.046;2023-03-20T08:15:57;100321.75;;;12.24;52.15
46347;BME280;32057;47.830;19.046;2023-03-20T08:18:23;100324.44;;;12.32;51.83
46347;BME280;32057;47.830;19.046;2023-03-20T08:20:48;100321.97;;;12.41;52.11
46347;BME280;32057;47.830;19.046;2023-03-20T08:23:16;100334.22;;;12.47;51.21
46347;BME280;32057;47.830;19.046;2023-03-20T08:25:49;100332.59;;;12.55;51.75
46347;BME280;32057;47.830;19.046;2023-03-20T08:28:15;100328.38;;;12.66;52.83
46347;BME280;32057;47.830;19.046;2023-03-20T08:30:41;100322.34;;;12.73;51.91
46347;BME280;32057;47.830;19.046;2023-03-20T08:33:06;100318.03;;;12.77;52.22
46347;BME280;32057;47.830;19.046;2023-03-20T08:35:32;100319.84;;;12.83;52.95
46347;BME280;32057;47.830;19.046;2023-03-20T08:37:57;100316.47;;;12.93;51.27
46347;BME280;32057;47.830;19.046;2023-03-20T08:40:23;100315.72;;;13.05;49.51
46347;BME280;32057;47.830;19.046;2023-03-20T08:42:48;100319.34;;;13.16;52.80
46347;BME280;32057;47.830;19.046;2023-03-20T08:45:14;100319.47;;;13.30;49.77
46347;BME280;32057;47.830;19.046;2023-03-20T08:47:39;100314.38;;;13.44;51.02
46347;BME280;32057;47.830;19.046;2023-03-20T08:50:05;100317.94;;;13.55;50.23
46347;BME280;32057;47.830;19.046;2023-03-20T08:52:32;100323.19;;;13.60;49.38
46347;BME280;32057;47.830;19.046;2023-03-20T08:54:57;100318.00;;;13.63;47.83
46347;BME280;32057;47.830;19.046;2023-03-20T08:57:22;100318.91;;;13.68;47.59
46347;BME280;32057;47.830;19.046;2023-03-20T08:59:48;100318.09;;;13.73;46.58
46347;BME280;32057;47.830;19.046;2023-03-20T09:02:13;100317.28;;;13.81;49.77
46347;BME280;32057;47.830;19.046;2023-03-20T09:04:39;100323.41;;;13.87;50.04
46347;BME280;32057;47.830;19.046;2023-03-20T09:07:05;100322.63;;;13.96;51.18
46347;BME280;32057;47.830;19.046;2023-03-20T09:09:31;100313.03;;;14.00;49.20
46347;BME280;32057;47.830;19.046;2023-03-20T09:11:57;100319.97;;;13.98;49.23
46347;BME280;32057;47.830;19.046;2023-03-20T09:14:23;100308.69;;;14.03;49.60
46347;BME280;32057;47.830;19.046;2023-03-20T09:16:49;100313.06;;;14.07;50.09
46347;BME280;32057;47.830;19.046;2023-03-20T09:19:15;100318.34;;;14.13;49.15
46347;BME280;32057;47.830;19.046;2023-03-20T09:21:41;100318.38;;;14.17;49.43
46347;BME280;32057;47.830;19.046;2023-03-20T09:24:07;100318.31;;;14.09;48.27
46347;BME280;32057;47.830;19.046;2023-03-20T09:26:32;100320.06;;;14.08;48.47
46347;BME280;32057;47.830;19.046;2023-03-20T09:28:58;100320.06;;;14.11;48.43
46347;BME280;32057;47.830;19.046;2023-03-20T09:31:23;100318.34;;;14.15;48.02
46347;BME280;32057;47.830;19.046;2023-03-20T09:33:49;100314.00;;;14.14;46.94
46347;BME280;32057;47.830;19.046;2023-03-20T09:36:15;100324.44;;;14.12;46.50
46347;BME280;32057;47.830;19.046;2023-03-20T09:38:41;100323.63;;;14.18;47.90
46347;BME280;32057;47.830;19.046;2023-03-20T09:41:15;100325.34;;;14.19;48.15
46347;BME280;32057;47.830;19.046;2023-03-20T09:51:56;100308.00;;;14.41;47.19
46347;BME280;32057;47.830;19.046;2023-03-20T09:54:44;100318.53;;;14.52;46.53
46347;BME280;32057;47.830;19.046;2023-03-20T09:57:19;100315.97;;;14.60;47.39
46347;BME280;32057;47.830;19.046;2023-03-20T09:59:46;100308.16;;;14.70;46.36
46347;BME280;32057;47.830;19.046;2023-03-20T10:02:24;100308.16;;;14.72;46.12
46347;BME280;32057;47.830;19.046;2023-03-20T10:04:54;100307.28;;;14.78;46.99
46347;BME280;32057;47.830;19.046;2023-03-20T10:07:19;100307.28;;;14.71;45.50
46347;BME280;32057;47.830;19.046;2023-03-20T10:09:45;100314.25;;;14.71;47.16
46347;BME280;32057;47.830;19.046;2023-03-20T10:15:02;100303.81;;;14.83;46.28
46347;BME280;32057;47.830;19.046;2023-03-20T10:22:34;100305.63;;;15.06;46.43
46347;BME280;32057;47.830;19.046;2023-03-20T10:25:20;100299.50;;;15.07;45.81
46347;BME280;32057;47.830;19.046;2023-03-20T10:30:35;100303.03;;;15.24;46.90
46347;BME280;32057;47.830;19.046;2023-03-20T10:38:44;100298.66;;;15.39;47.45
46347;BME280;32057;47.830;19.046;2023-03-20T10:41:15;100293.41;;;15.36;46.98
46347;BME280;32057;47.830;19.046;2023-03-20T10:43:43;100289.03;;;15.47;48.51
46347;BME280;32057;47.830;19.046;2023-03-20T10:46:14;100290.78;;;15.54;48.42
46347;BME280;32057;47.830;19.046;2023-03-20T10:48:50;100284.66;;;15.58;45.37
46347;BME280;32057;47.830;19.046;2023-03-20T10:51:20;100281.16;;;15.62;46.75
46347;BME280;32057;47.830;19.046;2023-03-20T10:53:59;100289.00;;;15.71;45.96
46347;BME280;32057;47.830;19.046;2023-03-20T10:59:09;100281.16;;;15.61;44.00
46347;BME280;32057;47.830;19.046;2023-03-20T11:01:36;100282.03;;;15.72;48.03
46347;BME280;32057;47.830;19.046;2023-03-20T11:04:02;100268.94;;;15.80;45.18
46347;BME280;32057;47.830;19.046;2023-03-20T11:06:30;100274.16;;;15.86;45.20
46347;BME280;32057;47.830;19.046;2023-03-20T11:09:10;100265.44;;;15.84;43.54
46347;BME280;32057;47.830;19.046;2023-03-20T11:11:38;100270.69;;;15.84;43.69
46347;BME280;32057;47.830;19.046;2023-03-20T11:14:16;100267.16;;;15.91;43.94
46347;BME280;32057;47.830;19.046;2023-03-20T11:16:46;100263.66;;;15.87;45.03
46347;BME280;32057;47.830;19.046;2023-03-20T11:19:13;100262.75;;;15.93;46.19
46347;BME280;32057;47.830;19.046;2023-03-20T11:21:50;100254.88;;;15.99;46.12
46347;BME280;32057;47.830;19.046;2023-03-20T11:24:41;100246.13;;;16.00;45.42
46347;BME280;32057;47.830;19.046;2023-03-20T11:29:36;100250.56;;;15.86;43.74
46347;BME280;32057;47.830;19.046;2023-03-20T11:32:32;100240.91;;;15.85;43.62
46347;BME280;32057;47.830;19.046;2023-03-20T11:35:10;100239.16;;;15.87;44.07
46347;BME280;32057;47.830;19.046;2023-03-20T11:37:44;100238.28;;;15.94;45.05
46347;BME280;32057;47.830;19.046;2023-03-20T11:40:32;100233.00;;;16.06;45.38
46347;BME280;32057;47.830;19.046;2023-03-20T11:45:32;100220.59;;;16.31;45.13
46347;BME280;32057;47.830;19.046;2023-03-20T11:47:59;100220.59;;;16.31;43.95
46347;BME280;32057;47.830;19.046;2023-03-20T11:50:35;100222.38;;;16.29;43.86
46347;BME280;32057;47.830;19.046;2023-03-20T11:53:02;100219.75;;;16.31;43.73
46347;BME280;32057;47.830;19.046;2023-03-20T11:55:30;100216.25;;;16.29;43.78
46347;BME280;32057;47.830;19.046;2023-03-20T11:58:02;100207.47;;;16.36;44.62
46347;BME280;32057;47.830;19.046;2023-03-20T12:00:38;100215.28;;;16.48;43.55
46347;BME280;32057;47.830;19.046;2023-03-20T12:06:05;100202.94;;;16.63;44.42
46347;BME280;32057;47.830;19.046;2023-03-20T12:08:31;100195.91;;;16.69;42.84
46347;BME280;32057;47.830;19.046;2023-03-20T12:11:01;100195.00;;;16.72;42.93
46347;BME280;32057;47.830;19.046;2023-03-20T12:13:31;100196.75;;;16.70;43.78
46347;BME280;32057;47.830;19.046;2023-03-20T12:16:04;100195.06;;;16.63;43.56
46347;BME280;32057;47.830;19.046;2023-03-20T12:18:34;100185.41;;;16.69;42.96
46347;BME280;32057;47.830;19.046;2023-03-20T12:26:32;100180.03;;;16.88;42.41
46347;BME280;32057;47.830;19.046;2023-03-20T12:29:06;100179.97;;;16.92;42.63
46347;BME280;32057;47.830;19.046;2023-03-20T12:31:42;100173.00;;;16.90;41.91
46347;BME280;32057;47.830;19.046;2023-03-20T12:36:46;100172.16;;;16.86;42.69
46347;BME280;32057;47.830;19.046;2023-03-20T12:39:30;100169.53;;;16.83;42.41
46347;BME280;32057;47.830;19.046;2023-03-20T12:47:48;100159.69;;;17.07;44.39
46347;BME280;32057;47.830;19.046;2023-03-20T12:50:30;100162.28;;;17.13;43.11
46347;BME280;32057;47.830;19.046;2023-03-20T12:58:47;100155.19;;;17.21;43.13
46347;BME280;32057;47.830;19.046;2023-03-20T13:01:34;100150.75;;;17.25;42.70
46347;BME280;32057;47.830;19.046;2023-03-20T13:07:17;100144.72;;;17.17;41.34
46347;BME280;32057;47.830;19.046;2023-03-20T13:20:24;100139.47;;;17.15;42.35
46347;BME280;32057;47.830;19.046;2023-03-20T13:28:51;100126.31;;;17.15;42.57
46347;BME280;32057;47.830;19.046;2023-03-20T13:34:24;100127.97;;;17.25;42.54
46347;BME280;32057;47.830;19.046;2023-03-20T13:42:20;100125.28;;;17.31;42.77
46347;BME280;32057;47.830;19.046;2023-03-20T13:44:47;100120.91;;;17.29;43.17
46347;BME280;32057;47.830;19.046;2023-03-20T13:47:18;100118.47;;;17.10;43.03
46347;BME280;32057;47.830;19.046;2023-03-20T13:50:18;100114.09;;;17.11;43.52
46347;BME280;32057;47.830;19.046;2023-03-20T13:52:41;100114.88;;;17.21;43.53
46347;BME280;32057;47.830;19.046;2023-03-20T13:55:43;100106.91;;;17.25;43.48
46347;BME280;32057;47.830;19.046;2023-03-20T14:01:17;100108.63;;;17.32;43.13
46347;BME280;32057;47.830;19.046;2023-03-20T14:03:47;100113.00;;;17.34;43.63
46347;BME280;32057;47.830;19.046;2023-03-20T14:06:42;100106.97;;;17.22;43.25
46347;BME280;32057;47.830;19.046;2023-03-20T14:09:34;100105.34;;;17.09;44.41
46347;BME280;32057;47.830;19.046;2023-03-20T14:12:09;100110.59;;;17.09;44.83
46347;BME280;32057;47.830;19.046;2023-03-20T14:14:56;100111.38;;;17.22;44.56
46347;BME280;32057;47.830;19.046;2023-03-20T14:17:30;100112.09;;;17.35;45.25
46347;BME280;32057;47.830;19.046;2023-03-20T14:19:57;100118.97;;;17.48;44.49
46347;BME280;32057;47.830;19.046;2023-03-20T14:22:35;100119.00;;;17.43;44.06
46347;BME280;32057;47.830;19.046;2023-03-20T14:25:05;100117.25;;;17.44;44.10
46347;BME280;32057;47.830;19.046;2023-03-20T14:27:55;100118.13;;;17.43;44.24
46347;BME280;32057;47.830;19.046;2023-03-20T14:35:35;100109.31;;;17.47;44.60
46347;BME280;32057;47.830;19.046;2023-03-20T14:38:18;100102.50;;;17.30;44.88
46347;BME280;32057;47.830;19.046;2023-03-20T14:40:51;100100.59;;;17.43;44.96
46347;BME280;32057;47.830;19.046;2023-03-20T14:49:13;100096.16;;;17.50;44.71
46347;BME280;32057;47.830;19.046;2023-03-20T14:51:46;100097.94;;;17.45;44.95
46347;BME280;32057;47.830;19.046;2023-03-20T14:56:50;100093.78;;;17.25;45.43
46347;BME280;32057;47.830;19.046;2023-03-20T14:59:17;100099.91;;;17.27;46.80
46347;BME280;32057;47.830;19.046;2023-03-20T15:01:55;100095.63;;;17.17;45.99
46347;BME280;32057;47.830;19.046;2023-03-20T15:04:35;100094.03;;;16.99;46.69
46347;BME280;32057;47.830;19.046;2023-03-20T15:07:23;100091.41;;;16.99;47.38
46347;BME280;32057;47.830;19.046;2023-03-20T15:09:51;100098.34;;;17.08;47.33
46347;BME280;32057;47.830;19.046;2023-03-20T15:12:26;100100.94;;;17.14;47.23